Terminal Aerodrome Forecast
Issued by NWS Twin Cities, MN

Home | Current Version | Previous Version | Graphics & Text | Print | Product List | Glossary On
Versions: 1 2 3 4 5 6 7 8 9 10 11 12 13 14 15 16 17 18 19
000
FTUS43 KMPX 232215 CCA
TAFEAU
TAF COR
KEAU 232215Z 2322/2418 16010KT P6SM SCT050 BKN100
     FM232300 16009KT 4SM -RA BR BKN035
     FM240200 17011KT P6SM SCT030 BKN050
     FM241200 23005KT P6SM SCT250
     FM241600 29010G17KT P6SM SCT250=

USA.gov is the U.S. government's official web portal to all federal, state and local government web resources and services.